sensor_id;sensor_type;location;lat;lon;timestamp;pressure;altitude;pressure_sealevel;temperature;humidity
54329;BME280;40710;51.120;13.136;2023-03-08T00:02:05;97773.00;;;4.60;66.44
54329;BME280;40710;51.120;13.136;2023-03-08T00:04:30;97772.00;;;4.62;67.07
54329;BME280;40710;51.120;13.136;2023-03-08T00:06:54;97763.50;;;4.74;66.25
54329;BME280;40710;51.120;13.136;2023-03-08T00:09:19;97770.41;;;4.60;66.64
54329;BME280;40710;51.120;13.136;2023-03-08T00:11:43;97768.47;;;4.63;66.27
54329;BME280;40710;51.120;13.136;2023-03-08T00:14:08;97773.25;;;4.55;66.60
54329;BME280;40710;51.120;13.136;2023-03-08T00:16:32;97776.94;;;4.51;66.61
54329;BME280;40710;51.120;13.136;2023-03-08T00:18:57;97777.03;;;4.49;66.83
54329;BME280;40710;51.120;13.136;2023-03-08T00:21:21;97765.19;;;4.44;67.21
54329;BME280;40710;51.120;13.136;2023-03-08T00:23:46;97770.41;;;4.76;66.76
54329;BME280;40710;51.120;13.136;2023-03-08T00:26:11;97779.72;;;4.48;67.12
54329;BME280;40710;51.120;13.136;2023-03-08T00:28:37;97781.19;;;4.36;67.50
54329;BME280;40710;51.120;13.136;2023-03-08T00:31:05;97788.00;;;4.39;68.12
54329;BME280;40710;51.120;13.136;2023-03-08T00:33:30;97794.88;;;4.55;67.06
54329;BME280;40710;51.120;13.136;2023-03-08T00:36:05;97798.66;;;4.50;67.61
54329;BME280;40710;51.120;13.136;2023-03-08T00:38:32;97808.06;;;4.37;67.85
54329;BME280;40710;51.120;13.136;2023-03-08T00:40:58;97791.41;;;4.23;68.04
54329;BME280;40710;51.120;13.136;2023-03-08T00:43:22;97789.19;;;4.49;67.71
54329;BME280;40710;51.120;13.136;2023-03-08T00:45:47;97780.38;;;4.35;67.11
54329;BME280;40710;51.120;13.136;2023-03-08T00:48:11;97786.50;;;3.84;68.33
54329;BME280;40710;51.120;13.136;2023-03-08T00:50:36;97788.34;;;4.48;67.25
54329;BME280;40710;51.120;13.136;2023-03-08T00:53:01;97790.31;;;4.27;68.50
54329;BME280;40710;51.120;13.136;2023-03-08T00:55:27;97795.00;;;4.70;66.54
54329;BME280;40710;51.120;13.136;2023-03-08T00:57:51;97792.09;;;3.93;68.65
54329;BME280;40710;51.120;13.136;2023-03-08T01:00:16;97790.34;;;3.76;68.19
54329;BME280;40710;51.120;13.136;2023-03-08T01:02:41;97781.72;;;4.43;68.30
54329;BME280;40710;51.120;13.136;2023-03-08T01:05:06;97787.28;;;4.52;67.22
54329;BME280;40710;51.120;13.136;2023-03-08T01:07:31;97799.13;;;4.25;67.68
54329;BME280;40710;51.120;13.136;2023-03-08T01:09:56;97798.53;;;3.86;68.03
54329;BME280;40710;51.120;13.136;2023-03-08T01:12:20;97802.13;;;3.66;69.63
54329;BME280;40710;51.120;13.136;2023-03-08T01:14:45;97799.50;;;3.84;69.35
54329;BME280;40710;51.120;13.136;2023-03-08T01:17:10;97779.09;;;4.43;66.84
54329;BME280;40710;51.120;13.136;2023-03-08T01:19:35;97796.31;;;3.44;68.74
54329;BME280;40710;51.120;13.136;2023-03-08T01:22:00;97795.00;;;3.52;70.04
54329;BME280;40710;51.120;13.136;2023-03-08T01:24:24;97783.72;;;4.04;68.66
54329;BME280;40710;51.120;13.136;2023-03-08T01:26:49;97783.44;;;4.10;66.86
54329;BME280;40710;51.120;13.136;2023-03-08T01:29:13;97787.50;;;3.98;67.58
54329;BME280;40710;51.120;13.136;2023-03-08T01:31:38;97788.25;;;3.13;69.57
54329;BME280;40710;51.120;13.136;2023-03-08T01:34:02;97779.09;;;3.93;67.99
54329;BME280;40710;51.120;13.136;2023-03-08T01:36:27;97779.22;;;4.08;66.92
54329;BME280;40710;51.120;13.136;2023-03-08T01:38:52;97770.41;;;3.94;67.04
54329;BME280;40710;51.120;13.136;2023-03-08T01:41:20;97787.34;;;2.97;69.83
54329;BME280;40710;51.120;13.136;2023-03-08T01:43:45;97793.38;;;2.78;70.77
54329;BME280;40710;51.120;13.136;2023-03-08T01:46:18;97801.03;;;2.81;72.94
54329;BME280;40710;51.120;13.136;2023-03-08T01:48:51;97796.41;;;3.42;70.74
54329;BME280;40710;51.120;13.136;2023-03-08T01:54:03;97808.56;;;3.05;70.59
54329;BME280;40710;51.120;13.136;2023-03-08T01:56:30;97806.38;;;3.32;70.60
54329;BME280;40710;51.120;13.136;2023-03-08T01:58:54;97790.41;;;3.92;69.02
54329;BME280;40710;51.120;13.136;2023-03-08T02:01:20;97790.59;;;3.72;68.86
54329;BME280;40710;51.120;13.136;2023-03-08T02:03:46;97795.94;;;3.69;68.93
54329;BME280;40710;51.120;13.136;2023-03-08T02:06:12;97791.78;;;3.82;67.17
54329;BME280;40710;51.120;13.136;2023-03-08T02:08:37;97802.22;;;3.65;68.21
54329;BME280;40710;51.120;13.136;2023-03-08T02:11:02;97801.06;;;3.53;69.06
54329;BME280;40710;51.120;13.136;2023-03-08T02:13:27;97795.41;;;4.13;67.30
54329;BME280;40710;51.120;13.136;2023-03-08T02:15:53;97792.41;;;3.52;68.82
54329;BME280;40710;51.120;13.136;2023-03-08T02:18:20;97786.78;;;4.12;67.19
54329;BME280;40710;51.120;13.136;2023-03-08T02:20:44;97778.34;;;4.41;67.03
54329;BME280;40710;51.120;13.136;2023-03-08T02:23:12;97780.28;;;3.70;68.82
54329;BME280;40710;51.120;13.136;2023-03-08T02:25:38;97781.81;;;4.57;66.40
54329;BME280;40710;51.120;13.136;2023-03-08T02:28:05;97793.63;;;3.45;68.34
54329;BME280;40710;51.120;13.136;2023-03-08T02:30:32;97791.03;;;3.80;68.49
54329;BME280;40710;51.120;13.136;2023-03-08T02:32:57;97779.25;;;4.40;66.93
54329;BME280;40710;51.120;13.136;2023-03-08T02:35:22;97781.56;;;4.78;65.24
54329;BME280;40710;51.120;13.136;2023-03-08T02:37:46;97783.09;;;4.16;67.80
54329;BME280;40710;51.120;13.136;2023-03-08T02:40:12;97776.66;;;4.40;66.51
54329;BME280;40710;51.120;13.136;2023-03-08T02:42:36;97781.31;;;4.66;66.25
54329;BME280;40710;51.120;13.136;2023-03-08T02:45:01;97782.06;;;4.52;65.98
54329;BME280;40710;51.120;13.136;2023-03-08T02:47:25;97778.38;;;4.72;64.95
54329;BME280;40710;51.120;13.136;2023-03-08T02:49:50;97770.84;;;4.19;66.00
54329;BME280;40710;51.120;13.136;2023-03-08T02:52:14;97784.19;;;4.12;67.83
54329;BME280;40710;51.120;13.136;2023-03-08T02:54:39;97774.72;;;3.94;68.08
54329;BME280;40710;51.120;13.136;2023-03-08T02:57:03;97784.03;;;3.65;68.66
54329;BME280;40710;51.120;13.136;2023-03-08T02:59:28;97797.53;;;3.54;69.92
54329;BME280;40710;51.120;13.136;2023-03-08T03:01:54;97801.59;;;3.42;69.63
54329;BME280;40710;51.120;13.136;2023-03-08T03:04:18;97797.44;;;3.73;69.11
54329;BME280;40710;51.120;13.136;2023-03-08T03:06:44;97800.53;;;3.46;70.28
54329;BME280;40710;51.120;13.136;2023-03-08T03:09:09;97790.41;;;3.92;69.84
54329;BME280;40710;51.120;13.136;2023-03-08T03:11:34;97793.69;;;3.96;69.09
54329;BME280;40710;51.120;13.136;2023-03-08T03:13:59;97792.63;;;4.00;67.55
54329;BME280;40710;51.120;13.136;2023-03-08T03:16:24;97802.81;;;3.35;70.69
54329;BME280;40710;51.120;13.136;2023-03-08T03:18:54;97797.94;;;3.46;70.32
54329;BME280;40710;51.120;13.136;2023-03-08T03:21:19;97801.75;;;3.56;70.55
54329;BME280;40710;51.120;13.136;2023-03-08T03:23:44;97800.44;;;3.65;70.28
54329;BME280;40710;51.120;13.136;2023-03-08T03:26:14;97799.34;;;3.17;71.36
54329;BME280;40710;51.120;13.136;2023-03-08T03:28:40;97796.97;;;3.82;71.25
54329;BME280;40710;51.120;13.136;2023-03-08T03:31:14;97796.47;;;3.93;69.84
54329;BME280;40710;51.120;13.136;2023-03-08T03:33:39;97805.84;;;3.43;70.52
54329;BME280;40710;51.120;13.136;2023-03-08T03:36:05;97812.28;;;3.71;68.63
54329;BME280;40710;51.120;13.136;2023-03-08T03:38:30;97809.41;;;3.77;69.04
54329;BME280;40710;51.120;13.136;2023-03-08T03:41:06;97809.63;;;4.23;68.24
54329;BME280;40710;51.120;13.136;2023-03-08T03:43:32;97810.78;;;3.67;70.36
54329;BME280;40710;51.120;13.136;2023-03-08T03:45:57;97797.69;;;4.52;67.97
54329;BME280;40710;51.120;13.136;2023-03-08T03:48:22;97807.94;;;4.22;68.36
54329;BME280;40710;51.120;13.136;2023-03-08T03:50:59;97813.75;;;4.10;69.34
54329;BME280;40710;51.120;13.136;2023-03-08T03:53:29;97807.88;;;4.40;67.61
54329;BME280;40710;51.120;13.136;2023-03-08T03:55:54;97825.56;;;4.00;69.09
54329;BME280;40710;51.120;13.136;2023-03-08T03:58:19;97821.75;;;3.89;69.35
54329;BME280;40710;51.120;13.136;2023-03-08T04:00:43;97822.78;;;4.20;68.30
54329;BME280;40710;51.120;13.136;2023-03-08T04:03:08;97824.88;;;3.96;69.01
54329;BME280;40710;51.120;13.136;2023-03-08T04:05:32;97818.50;;;4.52;68.58
54329;BME280;40710;51.120;13.136;2023-03-08T04:07:58;97820.88;;;4.06;69.42
54329;BME280;40710;51.120;13.136;2023-03-08T04:10:22;97817.47;;;3.88;69.08
54329;BME280;40710;51.120;13.136;2023-03-08T04:12:48;97825.97;;;4.25;68.58
54329;BME280;40710;51.120;13.136;2023-03-08T04:15:12;97825.44;;;4.52;68.07
54329;BME280;40710;51.120;13.136;2023-03-08T04:17:37;97827.66;;;4.76;67.21
54329;BME280;40710;51.120;13.136;2023-03-08T04:20:01;97833.69;;;4.60;67.27
54329;BME280;40710;51.120;13.136;2023-03-08T04:22:29;97826.81;;;4.26;68.60
54329;BME280;40710;51.120;13.136;2023-03-08T04:24:53;97820.78;;;4.25;68.59
54329;BME280;40710;51.120;13.136;2023-03-08T04:27:18;97830.88;;;3.81;69.38
54329;BME280;40710;51.120;13.136;2023-03-08T04:29:42;97833.56;;;4.46;69.09
54329;BME280;40710;51.120;13.136;2023-03-08T04:32:07;97827.19;;;4.51;68.93
54329;BME280;40710;51.120;13.136;2023-03-08T04:34:31;97814.13;;;4.53;68.00
54329;BME280;40710;51.120;13.136;2023-03-08T04:36:56;97811.59;;;4.51;67.00
54329;BME280;40710;51.120;13.136;2023-03-08T04:39:20;97809.25;;;5.10;66.13
54329;BME280;40710;51.120;13.136;2023-03-08T04:41:46;97813.63;;;4.78;66.25
54329;BME280;40710;51.120;13.136;2023-03-08T04:44:10;97816.44;;;4.42;67.32
54329;BME280;40710;51.120;13.136;2023-03-08T04:46:35;97812.00;;;4.28;67.75
54329;BME280;40710;51.120;13.136;2023-03-08T04:48:59;97819.41;;;4.67;67.15
54329;BME280;40710;51.120;13.136;2023-03-08T04:51:25;97817.97;;;4.12;67.83
54329;BME280;40710;51.120;13.136;2023-03-08T04:53:50;97820.63;;;4.28;68.55
54329;BME280;40710;51.120;13.136;2023-03-08T04:56:16;97820.59;;;4.78;67.57
54329;BME280;40710;51.120;13.136;2023-03-08T04:58:41;97809.69;;;4.71;67.04
54329;BME280;40710;51.120;13.136;2023-03-08T05:01:15;97818.63;;;4.33;67.78
54329;BME280;40710;51.120;13.136;2023-03-08T05:03:40;97815.38;;;4.46;67.92
54329;BME280;40710;51.120;13.136;2023-03-08T05:06:05;97800.59;;;4.62;67.18
54329;BME280;40710;51.120;13.136;2023-03-08T05:08:30;97794.47;;;4.31;67.59
54329;BME280;40710;51.120;13.136;2023-03-08T05:10:57;97793.06;;;4.89;65.75
54329;BME280;40710;51.120;13.136;2023-03-08T05:13:23;97797.69;;;4.68;66.29
54329;BME280;40710;51.120;13.136;2023-03-08T05:15:47;97800.38;;;4.18;67.20
54329;BME280;40710;51.120;13.136;2023-03-08T05:18:12;97812.09;;;4.42;67.85
54329;BME280;40710;51.120;13.136;2023-03-08T05:20:36;97809.09;;;4.82;66.18
54329;BME280;40710;51.120;13.136;2023-03-08T05:23:01;97816.31;;;4.27;66.93
54329;BME280;40710;51.120;13.136;2023-03-08T05:25:26;97822.84;;;4.68;66.86
54329;BME280;40710;51.120;13.136;2023-03-08T05:27:51;97827.19;;;4.35;67.42
54329;BME280;40710;51.120;13.136;2023-03-08T05:30:16;97826.75;;;4.10;67.75
54329;BME280;40710;51.120;13.136;2023-03-08T05:32:41;97820.00;;;4.72;66.33
54329;BME280;40710;51.120;13.136;2023-03-08T05:35:05;97815.47;;;4.92;65.64
54329;BME280;40710;51.120;13.136;2023-03-08T05:37:30;97811.78;;;4.96;65.54
54329;BME280;40710;51.120;13.136;2023-03-08T05:39:55;97807.22;;;4.84;65.41
54329;BME280;40710;51.120;13.136;2023-03-08T05:42:19;97805.50;;;4.19;66.97
54329;BME280;40710;51.120;13.136;2023-03-08T05:44:45;97817.47;;;4.55;66.85
54329;BME280;40710;51.120;13.136;2023-03-08T05:47:09;97812.28;;;4.71;66.48
54329;BME280;40710;51.120;13.136;2023-03-08T05:49:34;97813.31;;;4.84;65.96
54329;BME280;40710;51.120;13.136;2023-03-08T05:51:58;97808.75;;;5.04;65.21
54329;BME280;40710;51.120;13.136;2023-03-08T05:54:23;97802.72;;;5.03;65.02
54329;BME280;40710;51.120;13.136;2023-03-08T05:56:47;97806.31;;;4.85;66.12
54329;BME280;40710;51.120;13.136;2023-03-08T05:59:12;97808.19;;;4.67;65.96
54329;BME280;40710;51.120;13.136;2023-03-08T06:01:36;97810.63;;;4.86;65.88
54329;BME280;40710;51.120;13.136;2023-03-08T06:04:01;97813.69;;;4.92;66.18
54329;BME280;40710;51.120;13.136;2023-03-08T06:06:26;97823.88;;;4.81;66.16
54329;BME280;40710;51.120;13.136;2023-03-08T06:08:51;97823.94;;;4.96;66.06
54329;BME280;40710;51.120;13.136;2023-03-08T06:11:17;97819.78;;;4.93;65.47
54329;BME280;40710;51.120;13.136;2023-03-08T06:13:41;97822.22;;;4.96;65.61
54329;BME280;40710;51.120;13.136;2023-03-08T06:16:07;97811.44;;;5.02;65.96
54329;BME280;40710;51.120;13.136;2023-03-08T06:18:35;97812.44;;;5.16;65.04
54329;BME280;40710;51.120;13.136;2023-03-08T06:21:03;97813.94;;;5.20;65.19
54329;BME280;40710;51.120;13.136;2023-03-08T06:23:29;97806.66;;;5.10;65.45
54329;BME280;40710;51.120;13.136;2023-03-08T06:25:55;97808.75;;;5.04;66.18
54329;BME280;40710;51.120;13.136;2023-03-08T06:28:21;97803.72;;;4.85;65.87
54329;BME280;40710;51.120;13.136;2023-03-08T06:30:47;97805.41;;;4.86;65.55
54329;BME280;40710;51.120;13.136;2023-03-08T06:33:20;97799.44;;;5.16;65.51
54329;BME280;40710;51.120;13.136;2023-03-08T06:36:05;97806.06;;;5.05;65.61
54329;BME280;40710;51.120;13.136;2023-03-08T06:38:32;97802.53;;;5.06;65.96
54329;BME280;40710;51.120;13.136;2023-03-08T06:40:58;97801.50;;;5.25;64.91
54329;BME280;40710;51.120;13.136;2023-03-08T06:43:22;97799.47;;;5.60;63.87
54329;BME280;40710;51.120;13.136;2023-03-08T06:45:47;97794.19;;;5.32;64.21
54329;BME280;40710;51.120;13.136;2023-03-08T06:48:12;97795.28;;;5.11;65.35
54329;BME280;40710;51.120;13.136;2023-03-08T06:50:37;97806.63;;;5.57;64.07
54329;BME280;40710;51.120;13.136;2023-03-08T06:53:02;97809.53;;;5.36;64.34
54329;BME280;40710;51.120;13.136;2023-03-08T06:55:26;97812.91;;;5.38;65.24
54329;BME280;40710;51.120;13.136;2023-03-08T06:57:51;97806.56;;;5.58;64.48
54329;BME280;40710;51.120;13.136;2023-03-08T07:00:16;97803.13;;;5.58;64.37
54329;BME280;40710;51.120;13.136;2023-03-08T07:02:41;97808.63;;;5.67;63.84
54329;BME280;40710;51.120;13.136;2023-03-08T07:05:06;97812.50;;;5.60;64.29
54329;BME280;40710;51.120;13.136;2023-03-08T07:07:30;97811.34;;;5.96;63.44
54329;BME280;40710;51.120;13.136;2023-03-08T07:09:55;97821.41;;;5.86;63.93
54329;BME280;40710;51.120;13.136;2023-03-08T07:12:21;97821.16;;;5.30;65.16
54329;BME280;40710;51.120;13.136;2023-03-08T07:14:45;97817.31;;;5.82;64.19
54329;BME280;40710;51.120;13.136;2023-03-08T07:17:10;97819.03;;;5.37;65.25
54329;BME280;40710;51.120;13.136;2023-03-08T07:19:34;97813.47;;;6.04;63.09
54329;BME280;40710;51.120;13.136;2023-03-08T07:21:59;97816.47;;;5.82;63.97
54329;BME280;40710;51.120;13.136;2023-03-08T07:24:23;97821.28;;;5.43;64.86
54329;BME280;40710;51.120;13.136;2023-03-08T07:26:49;97827.84;;;5.51;65.85
54329;BME280;40710;51.120;13.136;2023-03-08T07:29:13;97801.56;;;6.29;63.38
54329;BME280;40710;51.120;13.136;2023-03-08T07:31:38;97805.66;;;6.04;63.81
54329;BME280;40710;51.120;13.136;2023-03-08T07:34:03;97799.69;;;6.31;63.05
54329;BME280;40710;51.120;13.136;2023-03-08T07:36:28;97804.25;;;6.13;63.55
54329;BME280;40710;51.120;13.136;2023-03-08T07:38:52;97803.81;;;6.35;62.59
54329;BME280;40710;51.120;13.136;2023-03-08T07:41:17;97794.19;;;6.35;62.14
54329;BME280;40710;51.120;13.136;2023-03-08T07:43:41;97790.66;;;6.08;62.78
54329;BME280;40710;51.120;13.136;2023-03-08T07:46:06;97796.81;;;6.21;62.61
54329;BME280;40710;51.120;13.136;2023-03-08T07:48:31;97788.97;;;6.06;63.01
54329;BME280;40710;51.120;13.136;2023-03-08T07:51:01;97787.69;;;5.83;63.10
54329;BME280;40710;51.120;13.136;2023-03-08T07:53:26;97788.75;;;5.95;63.39
54329;BME280;40710;51.120;13.136;2023-03-08T07:55:50;97785.25;;;6.39;62.34
54329;BME280;40710;51.120;13.136;2023-03-08T07:58:15;97780.78;;;6.56;61.52
54329;BME280;40710;51.120;13.136;2023-03-08T08:00:39;97780.88;;;6.81;61.40
54329;BME280;40710;51.120;13.136;2023-03-08T08:03:04;97780.00;;;6.68;61.40
54329;BME280;40710;51.120;13.136;2023-03-08T08:05:29;97773.09;;;6.67;60.92
54329;BME280;40710;51.120;13.136;2023-03-08T08:07:53;97762.84;;;6.78;60.87
54329;BME280;40710;51.120;13.136;2023-03-08T08:10:18;97764.75;;;6.89;60.52
54329;BME280;40710;51.120;13.136;2023-03-08T08:12:42;97758.13;;;7.11;60.51
54329;BME280;40710;51.120;13.136;2023-03-08T08:15:07;97756.13;;;7.02;60.48
54329;BME280;40710;51.120;13.136;2023-03-08T08:17:31;97771.09;;;6.85;60.51
54329;BME280;40710;51.120;13.136;2023-03-08T08:19:56;97770.13;;;7.00;60.54
54329;BME280;40710;51.120;13.136;2023-03-08T08:22:20;97770.25;;;6.85;60.64
54329;BME280;40710;51.120;13.136;2023-03-08T08:24:45;97775.13;;;6.76;60.64
54329;BME280;40710;51.120;13.136;2023-03-08T08:27:09;97763.56;;;7.08;60.06
54329;BME280;40710;51.120;13.136;2023-03-08T08:29:36;97760.16;;;7.20;59.26
54329;BME280;40710;51.120;13.136;2023-03-08T08:32:02;97769.28;;;6.58;60.29
54329;BME280;40710;51.120;13.136;2023-03-08T08:34:27;97759.66;;;6.73;59.66
54329;BME280;40710;51.120;13.136;2023-03-08T08:36:52;97757.19;;;6.85;59.98
54329;BME280;40710;51.120;13.136;2023-03-08T08:39:16;97752.81;;;6.85;60.27
54329;BME280;40710;51.120;13.136;2023-03-08T08:41:41;97750.56;;;6.93;60.35
54329;BME280;40710;51.120;13.136;2023-03-08T08:44:05;97739.91;;;6.96;59.82
54329;BME280;40710;51.120;13.136;2023-03-08T08:46:30;97748.63;;;6.82;60.28
54329;BME280;40710;51.120;13.136;2023-03-08T08:48:57;97740.66;;;6.98;59.79
54329;BME280;40710;51.120;13.136;2023-03-08T08:51:22;97748.81;;;6.23;61.40
54329;BME280;40710;51.120;13.136;2023-03-08T08:53:46;97745.38;;;6.79;60.27
54329;BME280;40710;51.120;13.136;2023-03-08T08:56:14;97740.25;;;6.21;61.67
54329;BME280;40710;51.120;13.136;2023-03-08T08:58:39;97733.22;;;6.65;61.00
54329;BME280;40710;51.120;13.136;2023-03-08T09:01:04;97721.56;;;6.56;60.64
54329;BME280;40710;51.120;13.136;2023-03-08T09:03:28;97722.44;;;6.42;60.68
54329;BME280;40710;51.120;13.136;2023-03-08T09:05:53;97715.53;;;6.56;61.05
54329;BME280;40710;51.120;13.136;2023-03-08T09:08:17;97711.44;;;6.79;60.96
54329;BME280;40710;51.120;13.136;2023-03-08T09:10:42;97706.69;;;6.71;60.79
54329;BME280;40710;51.120;13.136;2023-03-08T09:13:06;97705.31;;;6.66;60.73
54329;BME280;40710;51.120;13.136;2023-03-08T09:15:34;97705.75;;;6.45;61.70
54329;BME280;40710;51.120;13.136;2023-03-08T09:17:59;97690.09;;;6.99;60.11
54329;BME280;40710;51.120;13.136;2023-03-08T09:20:24;97688.00;;;7.05;59.99
54329;BME280;40710;51.120;13.136;2023-03-08T09:22:49;97696.63;;;6.52;61.42
54329;BME280;40710;51.120;13.136;2023-03-08T09:25:14;97689.44;;;6.56;61.70
54329;BME280;40710;51.120;13.136;2023-03-08T09:27:40;97683.50;;;6.67;61.65
54329;BME280;40710;51.120;13.136;2023-03-08T09:30:08;97682.84;;;6.90;60.84
54329;BME280;40710;51.120;13.136;2023-03-08T09:32:33;97671.00;;;7.12;60.54
54329;BME280;40710;51.120;13.136;2023-03-08T09:34:58;97671.31;;;7.20;60.01
54329;BME280;40710;51.120;13.136;2023-03-08T09:37:22;97667.38;;;7.53;59.25
54329;BME280;40710;51.120;13.136;2023-03-08T09:39:50;97670.50;;;7.32;59.67
54329;BME280;40710;51.120;13.136;2023-03-08T09:42:21;97661.41;;;7.25;59.89
54329;BME280;40710;51.120;13.136;2023-03-08T09:47:36;97647.28;;;7.15;60.17
54329;BME280;40710;51.120;13.136;2023-03-08T09:52:55;97655.88;;;7.30;59.41
54329;BME280;40710;51.120;13.136;2023-03-08T09:55:27;97646.59;;;7.38;59.69
54329;BME280;40710;51.120;13.136;2023-03-08T09:58:04;97639.66;;;7.12;60.02
54329;BME280;40710;51.120;13.136;2023-03-08T10:00:35;97632.75;;;6.98;60.30
54329;BME280;40710;51.120;13.136;2023-03-08T10:06:09;97633.38;;;7.02;60.50
54329;BME280;40710;51.120;13.136;2023-03-08T10:11:33;97639.91;;;6.81;60.87
54329;BME280;40710;51.120;13.136;2023-03-08T10:14:11;97635.47;;;6.96;60.35
54329;BME280;40710;51.120;13.136;2023-03-08T10:16:45;97626.59;;;7.12;60.52
54329;BME280;40710;51.120;13.136;2023-03-08T10:19:30;97621.47;;;7.23;60.28
54329;BME280;40710;51.120;13.136;2023-03-08T10:22:02;97630.06;;;6.72;61.38
54329;BME280;40710;51.120;13.136;2023-03-08T10:24:41;97623.13;;;6.86;61.41
54329;BME280;40710;51.120;13.136;2023-03-08T10:27:20;97614.03;;;7.17;60.68
54329;BME280;40710;51.120;13.136;2023-03-08T10:29:54;97610.88;;;6.86;61.14
54329;BME280;40710;51.120;13.136;2023-03-08T10:32:19;97611.25;;;6.67;62.15
54329;BME280;40710;51.120;13.136;2023-03-08T10:34:44;97610.31;;;7.08;60.86
54329;BME280;40710;51.120;13.136;2023-03-08T10:37:08;97608.50;;;7.34;60.77
54329;BME280;40710;51.120;13.136;2023-03-08T10:39:34;97592.31;;;7.04;60.94
54329;BME280;40710;51.120;13.136;2023-03-08T10:42:05;97588.13;;;6.48;62.36
54329;BME280;40710;51.120;13.136;2023-03-08T10:45:00;97590.38;;;6.80;61.99
54329;BME280;40710;51.120;13.136;2023-03-08T10:47:32;97592.59;;;6.86;61.99
54329;BME280;40710;51.120;13.136;2023-03-08T10:50:17;97585.88;;;6.56;63.40
54329;BME280;40710;51.120;13.136;2023-03-08T10:52:45;97579.38;;;7.28;61.01
54329;BME280;40710;51.120;13.136;2023-03-08T10:55:18;97568.72;;;7.05;60.92
54329;BME280;40710;51.120;13.136;2023-03-08T10:57:58;97560.94;;;6.78;61.97
54329;BME280;40710;51.120;13.136;2023-03-08T11:00:36;97557.94;;;7.10;61.24
54329;BME280;40710;51.120;13.136;2023-03-08T11:03:10;97547.28;;;7.26;60.25
54329;BME280;40710;51.120;13.136;2023-03-08T11:05:36;97544.66;;;7.26;60.30
54329;BME280;40710;51.120;13.136;2023-03-08T11:08:00;97531.53;;;7.02;60.70
54329;BME280;40710;51.120;13.136;2023-03-08T11:10:27;97529.94;;;6.99;61.30
54329;BME280;40710;51.120;13.136;2023-03-08T11:13:16;97533.72;;;7.21;61.17
54329;BME280;40710;51.120;13.136;2023-03-08T11:15:53;97527.81;;;6.66;62.23
54329;BME280;40710;51.120;13.136;2023-03-08T11:18:43;97513.09;;;7.29;62.40
54329;BME280;40710;51.120;13.136;2023-03-08T11:24:58;97496.81;;;7.12;61.30
54329;BME280;40710;51.120;13.136;2023-03-08T11:28:02;97478.16;;;7.80;59.73
54329;BME280;40710;51.120;13.136;2023-03-08T11:33:28;97479.78;;;7.19;61.78
54329;BME280;40710;51.120;13.136;2023-03-08T11:38:28;97475.22;;;6.72;63.01
54329;BME280;40710;51.120;13.136;2023-03-08T11:46:27;97453.59;;;6.95;62.27
54329;BME280;40710;51.120;13.136;2023-03-08T11:58:01;97449.28;;;6.43;63.92
54329;BME280;40710;51.120;13.136;2023-03-08T12:00:36;97443.34;;;6.79;62.42
54329;BME280;40710;51.120;13.136;2023-03-08T12:03:16;97435.16;;;7.23;61.88
54329;BME280;40710;51.120;13.136;2023-03-08T12:05:55;97435.22;;;6.84;62.60
54329;BME280;40710;51.120;13.136;2023-03-08T12:08:33;97419.91;;;7.16;62.23
54329;BME280;40710;51.120;13.136;2023-03-08T12:11:07;97424.09;;;7.19;61.60
54329;BME280;40710;51.120;13.136;2023-03-08T12:13:40;97419.66;;;6.82;62.12
54329;BME280;40710;51.120;13.136;2023-03-08T12:16:25;97427.41;;;6.46;62.70
54329;BME280;40710;51.120;13.136;2023-03-08T12:19:14;97423.19;;;6.17;63.63
54329;BME280;40710;51.120;13.136;2023-03-08T12:21:52;97423.91;;;6.19;64.25
54329;BME280;40710;51.120;13.136;2023-03-08T12:24:57;97429.16;;;6.32;64.38
54329;BME280;40710;51.120;13.136;2023-03-08T12:30:22;97418.41;;;6.88;62.38
54329;BME280;40710;51.120;13.136;2023-03-08T12:32:51;97418.00;;;6.56;63.53
54329;BME280;40710;51.120;13.136;2023-03-08T12:37:54;97408.59;;;6.66;62.91
54329;BME280;40710;51.120;13.136;2023-03-08T12:40:47;97414.75;;;6.78;63.21
54329;BME280;40710;51.120;13.136;2023-03-08T12:45:45;97415.16;;;6.59;63.46
54329;BME280;40710;51.120;13.136;2023-03-08T12:48:18;97410.88;;;6.84;63.08
54329;BME280;40710;51.120;13.136;2023-03-08T12:50:55;97412.78;;;7.18;61.98
54329;BME280;40710;51.120;13.136;2023-03-08T12:58:54;97399.72;;;7.31;61.87
54329;BME280;40710;51.120;13.136;2023-03-08T13:03:56;97411.16;;;7.05;62.98
54329;BME280;40710;51.120;13.136;2023-03-08T13:09:23;97390.53;;;7.50;62.39
54329;BME280;40710;51.120;13.136;2023-03-08T13:14:38;97379.59;;;7.69;62.03
54329;BME280;40710;51.120;13.136;2023-03-08T13:17:47;97366.72;;;7.90;61.74
54329;BME280;40710;51.120;13.136;2023-03-08T13:23:17;97370.53;;;7.97;61.74
54329;BME280;40710;51.120;13.136;2023-03-08T13:28:34;97367.84;;;7.74;61.98
54329;BME280;40710;51.120;13.136;2023-03-08T13:31:19;97361.84;;;7.61;61.79
54329;BME280;40710;51.120;13.136;2023-03-08T13:33:51;97356.44;;;7.75;61.69
54329;BME280;40710;51.120;13.136;2023-03-08T13:36:19;97352.09;;;7.15;62.66
54329;BME280;40710;51.120;13.136;2023-03-08T13:44:04;97352.81;;;6.93;62.69
54329;BME280;40710;51.120;13.136;2023-03-08T13:46:29;97358.50;;;6.61;65.02
54329;BME280;40710;51.120;13.136;2023-03-08T13:48:53;97351.69;;;6.84;64.99
54329;BME280;40710;51.120;13.136;2023-03-08T13:51:18;97333.25;;;7.47;61.89
54329;BME280;40710;51.120;13.136;2023-03-08T13:53:44;97340.38;;;6.96;63.72
54329;BME280;40710;51.120;13.136;2023-03-08T13:56:22;97340.97;;;7.00;63.69
54329;BME280;40710;51.120;13.136;2023-03-08T13:58:47;97348.28;;;6.32;65.98
54329;BME280;40710;51.120;13.136;2023-03-08T14:01:21;97339.38;;;6.73;64.52
54329;BME280;40710;51.120;13.136;2023-03-08T14:03:47;97331.16;;;7.04;63.64
54329;BME280;40710;51.120;13.136;2023-03-08T14:06:17;97329.81;;;7.22;63.52
54329;BME280;40710;51.120;13.136;2023-03-08T14:08:42;97320.66;;;7.41;62.98
54329;BME280;40710;51.120;13.136;2023-03-08T14:11:26;97323.75;;;7.70;61.96
54329;BME280;40710;51.120;13.136;2023-03-08T14:13:54;97313.03;;;8.08;60.53